首页
METAR-TAF:

METAR-TAF

机场 :

利沃夫, 乌克兰

纬度: 49-49N, 经度: 023-57E, 海拔: 319米

当前天气观测

该预报发布于28分钟前的06:00 UTC
风速8节,风向西
温度 4°C
湿度 81%
气压 1014 hPa
能见度10公里或以上
多云层高于2500英尺

METAR: UKLL 080600Z 27004MPS 9999 BKN025 04/01 Q1014 R31/290055 NOSIG

时间: 08:28 (06:28 UTC)

预报

该预报发布于1小时和21分钟前的05:07 UTC
预报有效从08日的 06点(UTC)到 09日的 06点(UTC)
风速10节,风向西转西南
能见度10公里或以上
多云层高于2000英尺
短暂存在
从 08日的 06点(UTC)到 08日的 14点(UTC)
风速14节,风向西南,有时为25节阵风
能見度: 2100
散云层高于400英尺
多云层高于700英尺
多云层高于1500英尺, 积雨云.
小阵雨, 轻雾
成为
从 08日的 14点(UTC)到 08日的 16点(UTC)
风速10节,风向南转西南
短暂存在
从 08日的 16点(UTC)到 09日的 06点(UTC)
能見度: 2100
多云层高于700英尺
轻雾

TAF: UKLL 080507Z 0806/0906 24005MPS 9999 BKN020 TX06/0812Z TN01/0904Z TEMPO 0806/0814 22007G13MPS 2100 -SHRA BR SCT004 BKN007 BKN015CB BECMG 0814/0816 20005MPS TEMPO 0816/0906 2100 BR BKN007

超过4000个机场的气象观测和天气预报(METAR&TAF报告)。

可查询的气象台以黄色和红色小点在地图上表示。

将鼠标移到小点上方,可查看气象台名称。

然后点击查看天气观测和预报。

如需切换地图:点击带黑十字的绿色按钮放大地图;点击带横线的绿色按钮缩小地图;或者点击绿色箭头查看邻近地区的地图。


METAR-TAF: